x

New Dungeness - 17 Nm Ne Of Port Angeles, Wa (46088) Wave Buoy

8:50 - Mon 22nd May 2017 All times are PDT. -7 hours from GMT.

  • Sig Wave height 0.3ft
  • Average Period 7s
  • Wind
    7mph, 7mph gusts
  • Sea Temp 50°f
  • Luft Temp 54°f
  • Sea Pressure 1022.1mb
  • New Dungeness - 17 Nm Ne Of Port Angeles, Wa
  • New Dungeness - 17 Nm Ne Of Port Angeles, Wa

More Historic Weather Station data

Upgrade to MSW Pro to gain access to the past 30 days of data for over 8000 Wavebouys and Weather Stations around the globe.

Join Pro

Comparision Forecast

View Surf forecast
   
Mo 05/22 8:50 0.3ft  -  7s 7 7 mph 1022.1mb 50f 54f
8:20 0.3ft  -  6s 4 4 mph 1021.9mb 50f 56f
7:50 0.3ft  -  6s 2 2 mph 1021.8mb 50f 55f
7:20 0.3ft  -  5s 2 4 mph 1021.8mb 49f 54f
6:20 0.3ft  -  3s 4 4 mph 1021.7mb 50f 53f
5:50 0.3ft  -  3s 4 7 mph 1021.7mb 50f 52f
5:20 0.3ft  -  4s 2 4 mph 1021.4mb 50f 51f
4:50 0.3ft  -  4s 4 4 mph 1021.6mb 50f 52f
4:20 0.3ft  -  3s 4 4 mph 1021.7mb 50f 53f
3:50 0.3ft  -  3s 4 7 mph 1021.6mb 50f 51f
3:20 0.3ft  -  3s 7 7 mph 1021.6mb 50f 51f
2:50 0.3ft  -  3s 4 7 mph 1021.5mb 50f 52f
2:20 0.3ft  -  3s 7 7 mph 1021.5mb 50f 52f
1:50 0.7ft  -  3s 4 4 mph 1021.4mb 50f 52f
1:20 0.7ft  -  3s 4 4 mph 1021.5mb 50f 53f
12:50 0.7ft  -  3s 7 7 mph 1021.4mb 50f 52f
12:20 0.7ft  -  3s 7 9 mph 1021.3mb 50f 53f
So 05/21 11:50 1ft 3s 3s 9 11 mph 1021.2mb 51f 53f
11:20 1ft 3s 3s 11 13 mph 1021.4mb 50f 53f
10:50 0.7ft  -  3s 11 13 mph 1021.6mb 51f 53f
10:20 0.3ft  -  3s 11 13 mph 1021.4mb 51f 53f
9:50 0.7ft  -  3s 11 11 mph 1021.5mb 51f 53f
9:20 0.7ft  -  3s 9 11 mph 1021.4mb 51f 53f
8:50 0.7ft  -  4s 9 9 mph 1021.4mb 51f 53f
8:20 0.7ft  -  4s 7 7 mph 1021.3mb 51f 54f
7:50 0.3ft  -  4s 4 7 mph 1021.5mb 51f 54f
7:20 0.7ft  -  4s 7 7 mph 1021.4mb 52f 55f
6:50 0.3ft  -  3s 4 7 mph 1021.4mb 52f 55f
6:20 0.3ft  -  4s 9 9 mph 1021.6mb 51f 54f
5:50 0.3ft  -  4s 9 11 mph 1021.8mb 52f 54f
5:20 0.3ft  -  4s 9 11 mph 1022.1mb 52f 55f
4:50 0.3ft  -  4s 7 7 mph 1022.3mb 53f 54f
3:50 0.7ft  -  5s 4 7 mph 1022.7mb 53f 55f
3:20 0.7ft  -  4s 2 2 mph 1022.8mb 52f 56f
2:50 0.7ft  -  4s 7 7 mph 1023.2mb 53f 55f
2:20 0.7ft  -  4s 7 7 mph 1023.5mb 53f 54f
1:50 0.7ft  -  3s 4 7 mph 1023.6mb 53f 53f
1:20 1ft 6s 4s 4 4 mph 1023.9mb 51f 53f
12:50 1ft 5s 4s 4 4 mph 1024.1mb 51f 52f
12:20 1.3ft 5s 4s 7 7 mph 1024.3mb 51f 52f
11:50 1ft 3s 4s 4 7 mph 1024.3mb 51f 51f
11:20 1ft 3s 4s 4 7 mph 1024.4mb 51f 50f
10:50 1ft 3s 4s 7 7 mph 1024.6mb 51f 50f
10:20 1.3ft 5s 4s 7 9 mph 1024.5mb 51f 49f
9:50 1.3ft 3s 4s 9 9 mph 1024.7mb 51f 49f
9:20 1.3ft 4s 4s 7 7 mph 1024.6mb 50f 50f
8:50 1.3ft 4s 4s 7 7 mph 1024.6mb 50f 49f
8:20 1.3ft 4s 4s 7 7 mph 1024.3mb 50f 49f
7:50 1ft 5s 4s 7 9 mph 1024.2mb 50f 49f
7:20 1.3ft 5s 4s 9 11 mph 1024.1mb 50f 49f
6:50 1ft 5s 4s 11 13 mph 1023.9mb 50f 49f
6:20 1.3ft 4s 4s 11 11 mph 1023.9mb 50f 49f
5:50 1.6ft 4s 4s 13 16 mph 1023.7mb 50f 49f
5:20 1.6ft 4s 4s 13 16 mph 1023.6mb 50f 49f
4:50 1.6ft 4s 4s 11 16 mph 1023.6mb 50f 49f
4:20 1.3ft 4s 3s 13 18 mph 1023.4mb 50f 49f
3:50 1.3ft 4s 3s 13 18 mph 1023.3mb 50f 49f
3:20 1.3ft 4s 3s 16 18 mph 1022.9mb 50f 49f
2:50 1.3ft 4s 3s 13 18 mph 1022.9mb 50f 50f
2:20 1.6ft 4s 3s 13 13 mph 1022.8mb 50f 51f
1:50 1.6ft 3s 3s 16 18 mph 1022.7mb 50f 51f
1:20 2ft 3s 3s 16 18 mph 1022.5mb 50f 51f
12:50 2.5ft 4s 3s 18 22 mph 1022.3mb 50f 50f
12:20 2.5ft 4s 3s 20 25 mph 1022.1mb 50f 50f
Sa 05/20 11:50 2.5ft 3s 3s 22 27 mph 1022mb 50f 51f
11:20 2.5ft 3s 3s 25 27 mph 1021.7mb 50f 51f
10:50 2.5ft 4s 3s 22 27 mph 1021.6mb 50f 51f
10:20 2.5ft 3s 3s 22 25 mph 1021.5mb 50f 50f
9:50 2.5ft 4s 3s 22 25 mph 1021.4mb 51f 50f
9:20 2.5ft 4s 4s 22 27 mph 1021.3mb 51f 50f
8:50 2.5ft 4s 4s 20 25 mph 1021.3mb 51f 50f
8:20 3ft 4s 4s 20 25 mph 1021.3mb 51f 50f
7:50 2.5ft 4s 4s 20 22 mph 1021.3mb 51f 50f
7:20 2.5ft 4s 3s 20 25 mph 1021.2mb 51f 50f
6:50 2ft 4s 3s 18 22 mph 1021mb 52f 51f
5:50 1.3ft 4s 3s 13 18 mph 1021.2mb 51f 53f
5:20 1ft 3s 3s 13 18 mph 1021.5mb 52f 53f
4:50 1ft 3s 3s 11 13 mph 1021.7mb 51f 53f
4:20 1ft 3s 3s 13 16 mph 1021.9mb 52f 53f
3:50 0.7ft  -  3s 13 16 mph 1022.1mb 52f 53f
3:20 0.7ft  -  3s 11 13 mph 1022.3mb 51f 52f
2:50 0.7ft  -  3s 11 13 mph 1022.4mb 51f 52f
2:20 0.3ft  -  3s 11 11 mph 1022.4mb 52f 52f
1:50 0.7ft  -  3s 9 11 mph 1022.5mb 52f 53f
1:20 0.7ft  -  3s 7 9 mph 1022.3mb 51f 52f
12:50 0.7ft  -  3s 7 9 mph 1022.3mb 51f 52f
12:20 0.7ft  -  3s 7 9 mph 1022.2mb 51f 52f
11:50 1ft 6s 3s 9 9 mph 1022.4mb 51f 52f
11:20 0.7ft  -  3s 9 9 mph 1022.4mb 51f 52f
10:50 1ft 3s 3s 4 7 mph 1022.5mb 51f 52f
10:20 1ft 4s 3s 7 9 mph 1022.4mb 51f 51f
9:50 1ft 3s 3s 7 7 mph 1022.3mb 50f 51f
9:20 1ft 3s 3s 7 9 mph 1022.2mb 50f 51f
8:50 1.3ft 3s 3s 9 11 mph 1021.9mb 50f 51f
8:20 1ft 3s 3s 13 16 mph 1021.7mb 50f 51f
7:50 1ft 4s 4s 11 13 mph 1021.5mb 50f 51f
7:20 1.3ft 4s 4s 11 13 mph 1021.3mb 50f 51f
6:50 1.3ft 4s 4s 9 11 mph 1021.1mb 50f 51f
6:20 1ft 4s 4s 11 13 mph 1020.9mb 50f 51f
5:50 1.3ft 4s 4s 13 16 mph 1020.3mb 50f 51f
5:20 1.3ft 4s 3s 13 16 mph 1020mb 50f 51f
4:50 1.3ft 4s 3s 13 16 mph 1019.8mb 50f 51f
4:20 1ft 3s 3s 13 18 mph 1019.9mb 50f 51f
3:50 1ft 3s 3s 16 18 mph 1019.7mb 50f 51f
3:20 1ft 3s 3s 16 18 mph 1019.6mb 50f 51f
2:50 1ft 3s 3s 13 16 mph 1019.3mb 50f 52f
2:20 1ft 3s 3s 13 16 mph 1019.1mb 50f 53f
1:50 1ft 3s 3s 13 16 mph 1019.1mb 50f 53f
1:20 1ft 2s 3s 11 13 mph 1019.1mb 50f 53f
12:50 1ft 2s 3s 13 16 mph 1019mb 50f 52f
12:20 1.3ft 3s 3s 13 13 mph 1019mb 50f 53f
Fr 05/19 11:50 1.3ft 3s 3s 13 16 mph 1019.1mb 50f 52f
11:20 1.3ft 3s 3s 16 18 mph 1019mb 50f 52f
10:50 1.3ft 3s 3s 16 16 mph 1019mb 51f 52f
10:20 1.3ft 3s 3s 16 18 mph 1019mb 51f 52f
9:50 1.3ft 3s 3s 18 20 mph 1018.8mb 50f 52f
9:20 1.3ft 3s 3s 18 22 mph 1018.4mb 50f 52f
8:50 1.6ft 3s 3s 18 20 mph 1018.5mb 50f 52f
8:20 1.6ft 3s 3s 18 20 mph 1018.5mb 51f 53f
7:50 1ft 7s 3s 16 18 mph 1018.7mb 51f 53f
7:20 1ft 3s 3s 7 9 mph 1019mb 51f 53f
6:50 0.7ft  -  3s 16 18 mph 1018.6mb 51f 53f
6:20 0.7ft  -  3s 13 16 mph 1018.9mb 51f 53f
5:50 0.3ft  -  3s 16 18 mph 1018.9mb 51f 53f
5:20 0.3ft  -  3s 11 13 mph 1019mb 52f 53f
4:50 0.3ft  -  4s 9 11 mph 1019.1mb 53f 53f
4:20 0.3ft  -  4s 7 9 mph 1019.2mb 53f 54f
3:50 0.3ft  -  4s 7 7 mph 1019.3mb 53f 54f
3:20 0.3ft  -  4s 4 7 mph 1019.4mb 55f 54f
2:50 0.3ft  -  5s 4 7 mph 1019.5mb 55f 54f
2:20 0.3ft  -  4s 4 4 mph 1019.5mb 54f 54f
1:50 0.3ft  -  4s 4 4 mph 1019.6mb 56f 54f
1:20 0.3ft  -  4s 2 4 mph 1019.8mb 54f 54f
12:50 0.7ft  -  4s  -  2 mph 1020mb 52f 54f
12:20 0.3ft  -  4s 2 2 mph 1020.1mb 51f 53f
11:50 0.7ft  -  4s  -  2 mph 1020.2mb 51f 53f
11:20 0.3ft  -  5s 2 4 mph 1020.4mb 52f 52f
10:50 0.7ft  -  4s  -  2 mph 1020.4mb 52f 52f
10:20 0.3ft  -  4s 2 2 mph 1020.5mb 51f 51f
9:50 0.3ft  -  4s  -  0 mph 1020.5mb 50f 51f
9:20 0.3ft  -  4s 4 4 mph 1020.5mb 50f 50f
8:50 0.3ft  -  4s 4 4 mph 1020.5mb 50f 50f
8:20 0.3ft  -  4s 4 4 mph 1020.4mb 50f 50f
7:50 0.3ft  -  4s 4 4 mph 1020.3mb 50f 50f
7:20 0.3ft  -  4s 4 4 mph 1020mb 50f 50f
6:50 0.3ft  -   -  4 7 mph 1019.7mb 50f 50f
6:20 0.3ft  -  4s 7 7 mph 1019.6mb 49f 50f
5:50 0.3ft  -   -  7 7 mph 1019.5mb 49f 49f
5:20 0.3ft  -  3s 7 7 mph 1019.5mb 50f 49f
4:50 0.3ft  -  3s 2 4 mph 1019.6mb 50f 49f
4:20 0.3ft  -  3s 2 2 mph 1019.4mb 50f 49f
3:50 0.3ft  -  3s 4 7 mph 1019.5mb 50f 49f
3:20 0.3ft  -  3s 4 7 mph 1019.6mb 50f 49f
2:50 0.7ft  -  3s 7 7 mph 1019.7mb 50f 50f
2:20 0.7ft  -  3s 9 9 mph 1019.7mb 50f 51f
1:50 0.7ft  -  3s 9 11 mph 1019.8mb 50f 51f
1:20 0.7ft  -  3s 9 11 mph 1019.8mb 50f 51f
12:50 0.7ft  -  3s 11 11 mph 1019.7mb 50f 51f
12:20 0.7ft  -  3s 11 13 mph 1019.6mb 50f 51f
Do 05/18 11:50 0.7ft  -  3s 13 16 mph 1019.6mb 50f 51f
11:20 0.7ft  -  3s 11 13 mph 1019.5mb 51f 51f
10:50 0.3ft  -  3s 11 11 mph 1019.5mb 50f 51f
10:20 0.3ft  -  5s 11 11 mph 1019.6mb 50f 51f
9:50 0.3ft  -  4s 11 11 mph 1019.5mb 50f 51f
9:20 0.3ft  -  4s 9 9 mph 1019.3mb 50f 51f
8:50 0.3ft  -  5s 9 9 mph 1019.2mb 50f 51f
8:20 0.3ft  -  4s 9 9 mph 1019.3mb 51f 52f
7:50 0.3ft  -  4s 7 7 mph 1019.3mb 52f 53f
7:20 0.3ft  -  4s 4 4 mph 1019.4mb 52f 53f
6:50 0.7ft  -  4s 2 4 mph 1019.5mb 52f 53f
5:50 0.3ft  -  4s 4 7 mph 1019.8mb 52f 53f
5:20 0.3ft  -  5s 2 2 mph 1019.9mb 52f 53f